Time;durP1;ratioP1;P1;durP2;ratioP2;P2;SDS_P1;SDS_P2;PMS_P1;PMS_P2;Temp;Humidity;BMP_temperature;BMP_pressure;BME280_temperature;BME280_humidity;BME280_pressure;Samples;Min_cycle;Max_cycle;Signal;HPM_P1;HPM_P2
2023/04/28 00:01:17;;;;;;;;;;;9.70;99.90;;;;;;5064145;28;19955;-66
2023/04/28 00:03:45;;;;;;;;;;;9.70;99.90;;;;;;5066656;28;19928;-66
2023/04/28 00:06:12;;;;;;;;;;;9.70;99.90;;;;;;5055928;28;20419;-66
2023/04/28 00:08:39;;;;;;;;;;;9.80;99.90;;;;;;5060014;28;20403;-66
2023/04/28 00:11:09;;;;;;;;;;;9.80;99.90;;;;;;5063136;28;19928;-68
2023/04/28 00:13:36;;;;;;;;;;;9.80;99.90;;;;;;5070698;28;19967;-67
2023/04/28 00:16:02;;;;;;;;;;;9.80;99.90;;;;;;5066670;28;19979;-66
2023/04/28 00:18:29;;;;;;;;;;;9.80;99.90;;;;;;5065658;28;20331;-67
2023/04/28 00:20:57;;;;;;;;;;;9.70;99.90;;;;;;5066907;28;19928;-66
2023/04/28 00:23:24;;;;;;;;;;;9.70;99.90;;;;;;5062488;28;19924;-65
2023/04/28 00:25:51;;;;;;;;;;;9.70;99.90;;;;;;5067211;28;19947;-66
2023/04/28 00:28:18;;;;;;;;;;;9.70;99.90;;;;;;5062889;28;20074;-67
2023/04/28 00:30:45;;;;;;;;;;;9.70;99.90;;;;;;5065933;28;20313;-66
2023/04/28 00:33:12;;;;;;;;;;;9.70;99.90;;;;;;5059077;28;19925;-66
2023/04/28 00:35:39;;;;;;;;;;;9.70;99.90;;;;;;5069465;28;20339;-66
2023/04/28 00:38:07;;;;;;;;;;;9.70;99.90;;;;;;5071186;28;19924;-66
2023/04/28 00:40:34;;;;;;;;;;;9.70;99.90;;;;;;5066528;28;19970;-67
2023/04/28 00:43:01;;;;;;;;;;;9.60;99.90;;;;;;5063286;28;19974;-66
2023/04/28 00:45:27;;;;;;;;;;;9.70;99.90;;;;;;5071089;28;19932;-67
2023/04/28 00:47:54;;;;;;;;;;;9.70;99.90;;;;;;5074485;28;19928;-66
2023/04/28 00:50:21;;;;;;;;;;;9.70;99.90;;;;;;5068566;28;19924;-66
2023/04/28 00:52:48;;;;;;;;;;;9.70;99.90;;;;;;5072517;28;20425;-68
2023/04/28 00:55:16;;;;;;;;;;;9.80;99.90;;;;;;5069412;28;19973;-66
2023/04/28 00:57:43;;;;;;;;;;;9.80;99.90;;;;;;5068743;28;19982;-66
2023/04/28 01:00:10;;;;;;;;;;;9.90;99.90;;;;;;5077590;28;19924;-68
2023/04/28 01:02:37;;;;;;;;;;;9.80;99.90;;;;;;5074992;28;20380;-66
2023/04/28 01:05:04;;;;;;;;;;;9.70;99.90;;;;;;5074616;28;19935;-66
2023/04/28 01:07:31;;;;;;;;;;;9.70;99.90;;;;;;5068759;28;19925;-66
2023/04/28 01:09:58;;;;;;;;;;;9.60;99.90;;;;;;5069874;28;19924;-65
2023/04/28 01:12:26;;;;;;;;;;;9.60;99.90;;;;;;5068317;28;19964;-66
2023/04/28 01:14:53;;;;;;;;;;;9.70;99.90;;;;;;5073104;28;19928;-67
2023/04/28 01:17:20;;;;;;;;;;;9.70;99.90;;;;;;5077352;28;19975;-67
2023/04/28 01:19:46;;;;;;;;;;;9.70;99.90;;;;;;5068595;28;19932;-67
2023/04/28 01:22:15;;;;;;;;;;;9.70;99.90;;;;;;5067562;28;19985;-67
2023/04/28 01:24:43;;;;;;;;;;;9.70;99.90;;;;;;5075833;28;19924;-67
2023/04/28 01:27:10;;;;;;;;;;;9.70;99.90;;;;;;5072329;28;19968;-67
2023/04/28 01:29:36;;;;;;;;;;;9.80;99.90;;;;;;5073961;28;20320;-67
2023/04/28 01:32:03;;;;;;;;;;;9.70;99.90;;;;;;5069427;28;20400;-67
2023/04/28 01:34:30;;;;;;;;;;;9.80;99.90;;;;;;5068863;28;20025;-67
2023/04/28 01:36:57;;;;;;;;;;;9.80;99.90;;;;;;5070187;28;19925;-67
2023/04/28 01:39:24;;;;;;;;;;;9.90;99.90;;;;;;5074872;28;20414;-66
2023/04/28 01:41:52;;;;;;;;;;;9.90;99.90;;;;;;5078818;28;19931;-67
2023/04/28 01:44:18;;;;;;;;;;;9.90;99.90;;;;;;5074753;28;19925;-67
2023/04/28 01:46:45;;;;;;;;;;;9.80;99.90;;;;;;5076320;28;19966;-67
2023/04/28 01:49:12;;;;;;;;;;;9.60;99.90;;;;;;5070004;28;20388;-67
2023/04/28 01:51:39;;;;;;;;;;;9.60;99.90;;;;;;5068830;28;19925;-67
2023/04/28 01:54:06;;;;;;;;;;;9.60;99.90;;;;;;5069764;28;20052;-67
2023/04/28 01:56:33;;;;;;;;;;;9.60;99.90;;;;;;5065610;28;20549;-67
2023/04/28 01:59:01;;;;;;;;;;;9.60;99.90;;;;;;5065389;28;19978;-67
2023/04/28 02:01:27;;;;;;;;;;;9.50;99.90;;;;;;5064065;28;19925;-67
2023/04/28 02:03:55;;;;;;;;;;;9.40;99.90;;;;;;5062029;28;19928;-66
2023/04/28 02:06:21;;;;;;;;;;;9.20;99.90;;;;;;5064060;28;19928;-66
2023/04/28 02:08:48;;;;;;;;;;;9.10;99.90;;;;;;5071329;28;19925;-67
2023/04/28 02:11:15;;;;;;;;;;;9.10;99.90;;;;;;5069266;28;19924;-67
2023/04/28 02:13:41;;;;;;;;;;;9.00;99.90;;;;;;5073339;28;20406;-67
2023/04/28 02:16:09;;;;;;;;;;;9.00;99.90;;;;;;5073457;28;19924;-67
2023/04/28 02:18:36;;;;;;;;;;;8.90;99.90;;;;;;5060981;28;19924;-68
2023/04/28 02:21:08;;;;;;;;;;;8.90;99.90;;;;;;5062275;28;19928;-68
2023/04/28 02:23:35;;;;;;;;;;;9.00;99.90;;;;;;5068877;28;19925;-68
2023/04/28 02:26:02;;;;;;;;;;;9.00;99.90;;;;;;5067264;28;19932;-68
2023/04/28 02:28:29;;;;;;;;;;;9.00;99.90;;;;;;5060895;28;20877;-67
2023/04/28 02:31:03;;;;;;;;;;;9.10;99.90;;;;;;5064299;28;20408;-67
2023/04/28 02:33:31;;;;;;;;;;;9.10;99.90;;;;;;5068698;28;19924;-68
2023/04/28 02:35:58;;;;;;;;;;;9.10;99.90;;;;;;5069866;28;20354;-67
2023/04/28 02:38:25;;;;;;;;;;;8.80;99.90;;;;;;5065480;28;20395;-65
2023/04/28 02:40:57;;;;;;;;;;;9.00;99.90;;;;;;5063924;28;19929;-67
2023/04/28 02:43:23;;;;;;;;;;;9.00;99.90;;;;;;5062013;28;19933;-66
2023/04/28 02:45:50;;;;;;;;;;;9.10;99.90;;;;;;5067412;28;19970;-67
2023/04/28 02:48:17;;;;;;;;;;;9.10;99.90;;;;;;5067338;28;19924;-67
2023/04/28 02:50:45;;;;;;;;;;;9.00;99.90;;;;;;5066055;28;20420;-67
2023/04/28 02:53:12;;;;;;;;;;;9.00;99.90;;;;;;5068044;28;19931;-68
2023/04/28 02:55:39;;;;;;;;;;;9.00;99.90;;;;;;5068252;28;20193;-67
2023/04/28 02:58:05;;;;;;;;;;;9.10;99.90;;;;;;5065522;28;19952;-67
2023/04/28 03:00:32;;;;;;;;;;;9.20;99.90;;;;;;5064415;28;20600;-67
2023/04/28 03:02:59;;;;;;;;;;;9.20;99.90;;;;;;5065823;28;19978;-67
2023/04/28 03:05:26;;;;;;;;;;;9.10;99.90;;;;;;5070367;28;19933;-67
2023/04/28 03:07:54;;;;;;;;;;;9.10;99.90;;;;;;5063180;28;19970;-67
2023/04/28 03:10:21;;;;;;;;;;;9.20;99.90;;;;;;5063754;28;19952;-67
2023/04/28 03:12:48;;;;;;;;;;;9.20;99.90;;;;;;5058501;28;20328;-67
2023/04/28 03:15:15;;;;;;;;;;;9.20;99.90;;;;;;5061521;28;19948;-68
2023/04/28 03:17:42;;;;;;;;;;;9.20;99.90;;;;;;5068973;28;19955;-67
2023/04/28 03:20:09;;;;;;;;;;;9.30;99.90;;;;;;5073466;28;20392;-67
2023/04/28 03:22:36;;;;;;;;;;;9.40;99.90;;;;;;5061184;28;20453;-67
2023/04/28 03:25:05;;;;;;;;;;;9.40;99.90;;;;;;5066207;28;20435;-67
2023/04/28 03:27:32;;;;;;;;;;;9.30;99.90;;;;;;5063836;28;19925;-68
2023/04/28 03:29:58;;;;;;;;;;;9.30;99.90;;;;;;5066853;28;19928;-67
2023/04/28 03:32:25;;;;;;;;;;;9.30;99.90;;;;;;5065712;28;19924;-67
2023/04/28 03:34:52;;;;;;;;;;;9.30;99.90;;;;;;5070607;28;20304;-67
2023/04/28 03:37:18;;;;;;;;;;;9.40;99.90;;;;;;5061919;28;20003;-67
2023/04/28 03:39:45;;;;;;;;;;;9.40;99.90;;;;;;5063344;28;20397;-68
2023/04/28 03:42:13;;;;;;;;;;;9.50;99.90;;;;;;5061056;28;20024;-67
2023/04/28 03:44:40;;;;;;;;;;;9.50;99.90;;;;;;5061232;28;19924;-68
2023/04/28 03:47:07;;;;;;;;;;;9.50;99.90;;;;;;5066555;28;20019;-68
2023/04/28 03:49:34;;;;;;;;;;;9.60;99.90;;;;;;5071233;28;19925;-68
2023/04/28 03:52:00;;;;;;;;;;;9.50;99.90;;;;;;5064996;28;19932;-68
2023/04/28 03:54:27;;;;;;;;;;;9.50;99.90;;;;;;5061692;28;19970;-67
2023/04/28 03:56:54;;;;;;;;;;;9.50;99.90;;;;;;5062730;28;20486;-67
2023/04/28 03:59:22;;;;;;;;;;;9.50;99.90;;;;;;5063475;28;19960;-68
2023/04/28 04:01:48;;;;;;;;;;;9.60;99.90;;;;;;5070724;28;19975;-67
2023/04/28 04:04:15;;;;;;;;;;;9.60;99.90;;;;;;5065700;28;19970;-67
2023/04/28 04:06:42;;;;;;;;;;;9.60;99.90;;;;;;5064726;28;19936;-67
2023/04/28 04:09:09;;;;;;;;;;;9.60;99.90;;;;;;5065354;28;19964;-67
2023/04/28 04:11:35;;;;;;;;;;;9.50;99.90;;;;;;5062098;28;20316;-67
2023/04/28 04:14:02;;;;;;;;;;;9.50;99.90;;;;;;5059233;28;19968;-68
2023/04/28 04:16:30;;;;;;;;;;;9.40;99.90;;;;;;5061677;28;19925;-68
2023/04/28 04:18:57;;;;;;;;;;;9.30;99.90;;;;;;5067195;28;19928;-67
2023/04/28 04:21:24;;;;;;;;;;;9.40;99.90;;;;;;5070613;28;20348;-67
2023/04/28 04:23:50;;;;;;;;;;;9.30;99.90;;;;;;5060978;28;19987;-67
2023/04/28 04:26:17;;;;;;;;;;;9.30;99.90;;;;;;5064709;28;19924;-68
2023/04/28 04:28:44;;;;;;;;;;;9.30;99.90;;;;;;5061872;28;19933;-67
2023/04/28 04:31:11;;;;;;;;;;;9.30;99.90;;;;;;5062920;28;20066;-68
2023/04/28 04:33:39;;;;;;;;;;;9.30;99.90;;;;;;5058763;28;19939;-68
2023/04/28 04:36:06;;;;;;;;;;;9.30;99.90;;;;;;5063152;28;20278;-68
2023/04/28 04:38:33;;;;;;;;;;;9.30;99.90;;;;;;5060918;28;19933;-68
2023/04/28 04:41:00;;;;;;;;;;;9.20;99.90;;;;;;5064064;28;19978;-68
2023/04/28 04:43:26;;;;;;;;;;;9.20;99.90;;;;;;5061744;28;20015;-68
2023/04/28 04:45:54;;;;;;;;;;;9.40;99.90;;;;;;5068636;28;20457;-68
2023/04/28 04:48:20;;;;;;;;;;;9.50;99.90;;;;;;5065906;28;19932;-67
2023/04/28 04:50:49;;;;;;;;;;;9.40;99.90;;;;;;5065929;28;20300;-68
2023/04/28 04:53:15;;;;;;;;;;;9.50;99.90;;;;;;5058666;28;19938;-68
2023/04/28 04:55:42;;;;;;;;;;;9.50;99.90;;;;;;5061762;28;19928;-68
2023/04/28 04:58:09;;;;;;;;;;;9.50;99.90;;;;;;5063175;28;19925;-68
2023/04/28 05:00:36;;;;;;;;;;;9.60;99.90;;;;;;5060411;28;19924;-68
2023/04/28 05:03:04;;;;;;;;;;;9.60;99.90;;;;;;5055434;28;20007;-68
2023/04/28 05:05:31;;;;;;;;;;;9.70;99.90;;;;;;5064330;28;20377;-68
2023/04/28 05:07:59;;;;;;;;;;;9.60;99.90;;;;;;5063080;28;20377;-66
2023/04/28 05:10:26;;;;;;;;;;;9.50;99.90;;;;;;5062260;28;19968;-67
2023/04/28 05:12:53;;;;;;;;;;;9.60;99.90;;;;;;5061882;28;19959;-67
2023/04/28 05:15:20;;;;;;;;;;;9.60;99.90;;;;;;5061966;28;19976;-67
2023/04/28 05:17:46;;;;;;;;;;;9.70;99.90;;;;;;5062660;28;19925;-67
2023/04/28 05:20:13;;;;;;;;;;;9.80;99.90;;;;;;5061110;28;19967;-67
2023/04/28 05:22:40;;;;;;;;;;;9.80;99.90;;;;;;5071141;28;19975;-67
2023/04/28 05:25:09;;;;;;;;;;;9.80;99.90;;;;;;5060616;28;19931;-68
2023/04/28 05:27:37;;;;;;;;;;;9.90;99.90;;;;;;5068397;28;19967;-67
2023/04/28 05:30:05;;;;;;;;;;;10.00;99.90;;;;;;5060711;28;19944;-67
2023/04/28 05:32:31;;;;;;;;;;;10.00;99.90;;;;;;5062225;28;19925;-67
2023/04/28 05:34:58;;;;;;;;;;;10.00;99.90;;;;;;5064322;28;19929;-67
2023/04/28 05:37:25;;;;;;;;;;;10.10;99.90;;;;;;5063905;28;19925;-67
2023/04/28 05:39:52;;;;;;;;;;;10.20;99.90;;;;;;5069486;28;19990;-67
2023/04/28 05:42:20;;;;;;;;;;;10.30;99.90;;;;;;5064966;28;20511;-66
2023/04/28 05:44:47;;;;;;;;;;;10.20;99.90;;;;;;5065196;28;20302;-66
2023/04/28 05:47:13;;;;;;;;;;;10.20;99.90;;;;;;5063433;28;19924;-67
2023/04/28 05:49:40;;;;;;;;;;;10.10;99.90;;;;;;5055278;28;20282;-67
2023/04/28 05:52:07;;;;;;;;;;;10.30;99.90;;;;;;5055149;28;19990;-67
2023/04/28 05:54:34;;;;;;;;;;;10.30;99.90;;;;;;5075025;28;20387;-67
2023/04/28 05:57:01;;;;;;;;;;;10.30;99.90;;;;;;5063790;28;19932;-67
2023/04/28 05:59:30;;;;;;;;;;;10.30;99.90;;;;;;5066856;28;19925;-67
2023/04/28 06:01:57;;;;;;;;;;;10.40;99.90;;;;;;5064138;28;19925;-67
2023/04/28 06:04:24;;;;;;;;;;;10.40;99.90;;;;;;5070831;28;19925;-67
2023/04/28 06:06:50;;;;;;;;;;;10.40;99.90;;;;;;5066856;28;19960;-67
2023/04/28 06:09:17;;;;;;;;;;;10.40;99.90;;;;;;5062065;28;19929;-67
2023/04/28 06:11:44;;;;;;;;;;;10.50;99.90;;;;;;5066880;28;19978;-67
2023/04/28 06:14:11;;;;;;;;;;;10.60;99.90;;;;;;5070286;28;20415;-68
2023/04/28 06:16:39;;;;;;;;;;;10.70;99.90;;;;;;5067877;28;19959;-66
2023/04/28 06:19:06;;;;;;;;;;;10.70;99.90;;;;;;5061775;28;19982;-66
2023/04/28 06:21:33;;;;;;;;;;;10.90;99.90;;;;;;5069910;28;20002;-66
2023/04/28 06:24:00;;;;;;;;;;;11.00;99.90;;;;;;5063075;28;19925;-66
2023/04/28 06:26:27;;;;;;;;;;;11.10;99.90;;;;;;5056522;28;19924;-66
2023/04/28 06:28:54;;;;;;;;;;;11.20;99.90;;;;;;5053215;28;19925;-66
2023/04/28 06:31:20;;;;;;;;;;;11.30;99.90;;;;;;5070628;28;19978;-66
2023/04/28 06:33:49;;;;;;;;;;;11.40;99.90;;;;;;5066959;28;19951;-67
2023/04/28 06:36:16;;;;;;;;;;;11.60;99.90;;;;;;5068047;28;20002;-67
2023/04/28 06:38:43;;;;;;;;;;;11.80;99.90;;;;;;5055982;28;19925;-68
2023/04/28 06:41:10;;;;;;;;;;;12.20;99.90;;;;;;5065271;28;20050;-68
2023/04/28 06:43:37;;;;;;;;;;;12.40;99.90;;;;;;5057964;28;19930;-68
2023/04/28 06:46:04;;;;;;;;;;;12.50;99.90;;;;;;5064331;28;19925;-69
2023/04/28 06:48:31;;;;;;;;;;;12.60;99.90;;;;;;5063274;28;19977;-68
2023/04/28 06:50:59;;;;;;;;;;;12.60;99.90;;;;;;5062308;28;19967;-68
2023/04/28 06:53:26;;;;;;;;;;;12.70;99.90;;;;;;5068924;28;19928;-68
2023/04/28 06:55:52;;;;;;;;;;;12.70;99.90;;;;;;5069316;28;19928;-69
2023/04/28 06:58:20;;;;;;;;;;;12.70;99.90;;;;;;5058757;28;19929;-69
2023/04/28 07:00:46;;;;;;;;;;;12.80;99.90;;;;;;5064468;28;20355;-66
2023/04/28 07:03:13;;;;;;;;;;;12.90;99.90;;;;;;5070548;28;19924;-67
2023/04/28 07:05:40;;;;;;;;;;;13.00;99.90;;;;;;5073215;28;19924;-67
2023/04/28 07:08:08;;;;;;;;;;;13.10;99.90;;;;;;5065139;28;20335;-68
2023/04/28 07:10:35;;;;;;;;;;;13.20;99.90;;;;;;5072850;28;20304;-68
2023/04/28 07:13:01;;;;;;;;;;;13.40;99.90;;;;;;5066159;28;19925;-68
2023/04/28 07:15:28;;;;;;;;;;;13.50;99.90;;;;;;5068741;28;19925;-69
2023/04/28 07:17:55;;;;;;;;;;;13.50;99.90;;;;;;5055428;28;19925;-69
2023/04/28 07:20:22;;;;;;;;;;;13.60;99.90;;;;;;5052457;28;19971;-69
2023/04/28 07:22:49;;;;;;;;;;;13.70;99.90;;;;;;5056789;28;19925;-69
2023/04/28 07:25:17;;;;;;;;;;;14.20;99.90;;;;;;5072925;28;19929;-68
2023/04/28 07:27:43;;;;;;;;;;;13.90;99.90;;;;;;5071240;28;20278;-69
2023/04/28 07:30:11;;;;;;;;;;;14.00;99.90;;;;;;5065709;28;19925;-68
2023/04/28 07:32:38;;;;;;;;;;;14.10;99.90;;;;;;5052003;28;19925;-67
2023/04/28 07:35:05;;;;;;;;;;;14.10;99.90;;;;;;5067936;28;19971;-69
2023/04/28 07:37:32;;;;;;;;;;;14.20;99.90;;;;;;5056354;28;19997;-69
2023/04/28 07:39:59;;;;;;;;;;;14.40;99.90;;;;;;5060827;28;20360;-69
2023/04/28 07:42:27;;;;;;;;;;;14.60;99.90;;;;;;5067787;28;19924;-69
2023/04/28 07:44:54;;;;;;;;;;;14.70;99.90;;;;;;5070459;28;19928;-69
2023/04/28 07:47:21;;;;;;;;;;;14.70;99.90;;;;;;5056922;28;19957;-68
2023/04/28 07:49:47;;;;;;;;;;;14.70;99.90;;;;;;5055140;28;20671;-68
2023/04/28 07:52:15;;;;;;;;;;;14.80;99.90;;;;;;5070113;28;19978;-69
2023/04/28 07:54:41;;;;;;;;;;;14.70;99.90;;;;;;5063419;28;19948;-67
2023/04/28 07:57:09;;;;;;;;;;;14.60;99.90;;;;;;5064118;28;19933;-67
2023/04/28 07:59:37;;;;;;;;;;;14.70;99.90;;;;;;5055691;28;19924;-67
2023/04/28 08:02:04;;;;;;;;;;;14.70;99.90;;;;;;5059043;28;19932;-68
2023/04/28 08:04:32;;;;;;;;;;;14.70;99.90;;;;;;5063877;28;19925;-67
2023/04/28 08:06:59;;;;;;;;;;;14.60;99.90;;;;;;5067045;28;19925;-67
2023/04/28 08:09:26;;;;;;;;;;;14.60;99.90;;;;;;5062162;28;20274;-67
2023/04/28 08:11:53;;;;;;;;;;;14.70;99.90;;;;;;5064097;28;20400;-67
2023/04/28 08:14:20;;;;;;;;;;;14.80;99.90;;;;;;5070653;28;19938;-67
2023/04/28 08:16:48;;;;;;;;;;;14.70;99.90;;;;;;5072138;28;20038;-67
2023/04/28 08:19:15;;;;;;;;;;;14.80;99.90;;;;;;5070290;28;19924;-66
2023/04/28 08:21:42;;;;;;;;;;;14.80;99.90;;;;;;5060649;28;20385;-67
2023/04/28 08:24:09;;;;;;;;;;;14.80;99.90;;;;;;5053638;28;19978;-67
2023/04/28 08:26:36;;;;;;;;;;;15.00;99.90;;;;;;5059065;28;19967;-67
2023/04/28 08:29:03;;;;;;;;;;;14.90;99.90;;;;;;5071596;28;19931;-66
2023/04/28 08:31:30;;;;;;;;;;;14.90;99.90;;;;;;5071145;28;20434;-67
2023/04/28 08:33:58;;;;;;;;;;;15.00;99.90;;;;;;5064035;28;20047;-66
2023/04/28 08:36:30;;;;;;;;;;;15.00;99.90;;;;;;5053986;28;20110;-65
2023/04/28 08:38:58;;;;;;;;;;;15.10;99.90;;;;;;5067350;28;20397;-66
2023/04/28 08:41:26;;;;;;;;;;;15.10;99.90;;;;;;5062459;28;19924;-66
2023/04/28 08:43:53;;;;;;;;;;;15.30;99.90;;;;;;5064616;28;19959;-66
2023/04/28 08:46:21;;;;;;;;;;;15.30;99.90;;;;;;5052325;28;19924;-66
2023/04/28 08:48:49;;;;;;;;;;;15.30;99.90;;;;;;5067963;28;19939;-66
2023/04/28 08:51:24;;;;;;;;;;;15.30;99.90;;;;;;5061077;28;19925;-67
2023/04/28 08:53:53;;;;;;;;;;;15.30;99.90;;;;;;5051202;28;19972;-66
2023/04/28 08:56:22;;;;;;;;;;;15.40;99.90;;;;;;5063523;28;20029;-67
2023/04/28 08:58:49;;;;;;;;;;;15.60;99.90;;;;;;5066569;28;19928;-66
2023/04/28 09:01:16;;;;;;;;;;;15.70;99.90;;;;;;5070949;28;19972;-67
2023/04/28 09:03:43;;;;;;;;;;;15.90;99.90;;;;;;5055095;28;19929;-66
2023/04/28 09:06:10;;;;;;;;;;;15.90;99.90;;;;;;5054188;28;20389;-67
2023/04/28 09:08:38;;;;;;;;;;;15.90;99.90;;;;;;5075519;28;20452;-66
2023/04/28 09:11:08;;;;;;;;;;;15.80;99.90;;;;;;5075926;28;20339;-66
2023/04/28 09:13:35;;;;;;;;;;;15.70;99.90;;;;;;5072109;28;20031;-67
2023/04/28 09:16:02;;;;;;;;;;;15.80;99.90;;;;;;5074937;28;19925;-67
2023/04/28 09:18:31;;;;;;;;;;;16.00;99.90;;;;;;5067941;28;19939;-67
2023/04/28 09:21:05;;;;;;;;;;;16.30;99.90;;;;;;5066637;28;20439;-67
2023/04/28 09:23:33;;;;;;;;;;;16.60;99.90;;;;;;5070156;28;19940;-69
2023/04/28 09:26:02;;;;;;;;;;;16.70;99.90;;;;;;5071793;28;20444;-67
2023/04/28 09:28:29;;;;;;;;;;;16.90;99.90;;;;;;5073039;28;20006;-67
2023/04/28 09:30:55;;;;;;;;;;;16.80;99.90;;;;;;5055317;28;20344;-67
2023/04/28 09:33:22;;;;;;;;;;;16.90;99.90;;;;;;5058757;28;19928;-67
2023/04/28 09:35:49;;;;;;;;;;;16.80;99.90;;;;;;5072637;28;20388;-66
2023/04/28 09:38:16;;;;;;;;;;;16.80;99.90;;;;;;5074323;28;19925;-67
2023/04/28 09:40:50;;;;;;;;;;;16.60;99.90;;;;;;5064951;28;19929;-67
2023/04/28 09:43:24;;;;;;;;;;;16.50;99.90;;;;;;5055716;28;19924;-69
2023/04/28 09:45:51;;;;;;;;;;;16.30;99.90;;;;;;5060468;28;19994;-67
2023/04/28 09:48:18;;;;;;;;;;;16.20;99.90;;;;;;5063369;28;19925;-66
2023/04/28 09:50:45;;;;;;;;;;;16.10;99.90;;;;;;5064449;28;19935;-66
2023/04/28 09:53:12;;;;;;;;;;;16.10;99.90;;;;;;5066372;28;19928;-67
2023/04/28 09:55:41;;;;;;;;;;;16.20;99.90;;;;;;5062983;28;19929;-67
2023/04/28 09:58:08;;;;;;;;;;;16.20;99.90;;;;;;5068646;28;19993;-66
2023/04/28 10:00:37;;;;;;;;;;;16.10;99.90;;;;;;5072132;28;19925;-67
2023/04/28 10:03:04;;;;;;;;;;;16.10;99.90;;;;;;5063035;28;19924;-68
2023/04/28 10:05:31;;;;;;;;;;;15.90;99.90;;;;;;5073838;28;20299;-68
2023/04/28 10:08:00;;;;;;;;;;;15.90;99.90;;;;;;5072010;28;19933;-68
2023/04/28 10:10:27;;;;;;;;;;;15.90;99.90;;;;;;5073656;28;19924;-67
2023/04/28 10:12:55;;;;;;;;;;;15.90;99.90;;;;;;5069082;28;19925;-67
2023/04/28 10:15:23;;;;;;;;;;;15.90;99.90;;;;;;5074498;28;19936;-67
2023/04/28 10:17:51;;;;;;;;;;;15.90;99.90;;;;;;5070535;28;19925;-67
2023/04/28 10:20:20;;;;;;;;;;;15.90;99.90;;;;;;5073181;28;19978;-67
2023/04/28 10:22:53;;;;;;;;;;;15.90;99.90;;;;;;5055699;28;19925;-67
2023/04/28 10:25:27;;;;;;;;;;;15.90;99.90;;;;;;5065295;28;20036;-66
2023/04/28 10:27:54;;;;;;;;;;;15.90;99.90;;;;;;5071004;28;19986;-66
2023/04/28 10:30:21;;;;;;;;;;;16.00;99.90;;;;;;5071847;28;19963;-67
2023/04/28 10:32:48;;;;;;;;;;;16.00;99.90;;;;;;5070654;28;19947;-67
2023/04/28 10:35:35;;;;;;;;;;;16.00;99.90;;;;;;5073823;28;19924;-66
2023/04/28 10:38:08;;;;;;;;;;;15.80;99.90;;;;;;5071217;28;20352;-67
2023/04/28 10:40:35;;;;;;;;;;;15.70;99.90;;;;;;5073661;28;19924;-66
2023/04/28 10:43:02;;;;;;;;;;;15.70;99.90;;;;;;5073254;28;19929;-67
2023/04/28 10:45:48;;;;;;;;;;;15.70;99.90;;;;;;5065551;28;19925;-66
2023/04/28 10:48:15;;;;;;;;;;;15.70;99.90;;;;;;5060859;28;19925;-66
2023/04/28 10:50:56;;;;;;;;;;;15.80;99.90;;;;;;5062706;28;19929;-67
2023/04/28 10:53:51;;;;;;;;;;;15.90;99.90;;;;;;5071571;28;19924;-66
2023/04/28 10:56:20;;;;;;;;;;;15.80;99.90;;;;;;5065497;28;19955;-66
2023/04/28 10:58:47;;;;;;;;;;;15.50;99.90;;;;;;5057592;28;19935;-68
2023/04/28 11:01:28;;;;;;;;;;;15.40;99.90;;;;;;5067624;28;20353;-68
2023/04/28 11:04:01;;;;;;;;;;;15.30;99.90;;;;;;5059443;28;19925;-68
2023/04/28 11:06:29;;;;;;;;;;;15.20;99.90;;;;;;5063957;28;19963;-68
2023/04/28 11:08:59;;;;;;;;;;;15.20;99.90;;;;;;5072509;28;19924;-68
2023/04/28 11:11:26;;;;;;;;;;;15.20;99.90;;;;;;5072881;28;20373;-68
2023/04/28 11:13:53;;;;;;;;;;;15.20;99.90;;;;;;5072545;28;20415;-68
2023/04/28 11:16:21;;;;;;;;;;;15.20;99.90;;;;;;5073086;28;20331;-68
2023/04/28 11:19:06;;;;;;;;;;;15.30;99.90;;;;;;5064973;28;20415;-67
2023/04/28 11:21:33;;;;;;;;;;;15.40;99.90;;;;;;5073008;28;20332;-68
2023/04/28 11:24:08;;;;;;;;;;;15.50;99.90;;;;;;5087098;28;19924;-68
2023/04/28 11:26:37;;;;;;;;;;;15.50;99.90;;;;;;5065446;28;19971;-69
2023/04/28 11:29:03;;;;;;;;;;;15.40;99.90;;;;;;5053718;28;19925;-69
2023/04/28 11:31:30;;;;;;;;;;;15.20;99.90;;;;;;5064210;28;20013;-68
2023/04/28 11:33:58;;;;;;;;;;;15.10;99.90;;;;;;5064649;28;19931;-69
2023/04/28 11:36:26;;;;;;;;;;;15.00;99.90;;;;;;5065700;28;19970;-68
2023/04/28 11:38:53;;;;;;;;;;;14.90;99.90;;;;;;5067971;28;19978;-68
2023/04/28 11:41:22;;;;;;;;;;;14.90;99.90;;;;;;5071111;28;19935;-69
2023/04/28 11:43:49;;;;;;;;;;;14.90;99.90;;;;;;5070525;28;19970;-69
2023/04/28 11:46:16;;;;;;;;;;;14.80;99.90;;;;;;5072371;28;19964;-69
2023/04/28 11:48:43;;;;;;;;;;;14.80;99.90;;;;;;5066969;28;19954;-69
2023/04/28 11:51:10;;;;;;;;;;;14.80;99.90;;;;;;5071338;28;19972;-69
2023/04/28 11:53:43;;;;;;;;;;;14.70;99.90;;;;;;5072696;28;19924;-68
2023/04/28 11:56:12;;;;;;;;;;;14.80;99.90;;;;;;5070231;28;20270;-68
2023/04/28 11:58:40;;;;;;;;;;;14.90;99.90;;;;;;5065824;28;19925;-68
2023/04/28 12:01:07;;;;;;;;;;;14.90;99.90;;;;;;5069037;28;19928;-68
2023/04/28 12:03:41;;;;;;;;;;;14.90;99.90;;;;;;5069985;28;20301;-68
2023/04/28 12:06:08;;;;;;;;;;;15.00;99.90;;;;;;5065623;28;19967;-68
2023/04/28 12:08:35;;;;;;;;;;;15.20;99.90;;;;;;5062331;28;19933;-68
2023/04/28 12:11:09;;;;;;;;;;;15.40;99.90;;;;;;5070264;28;20360;-67
2023/04/28 12:13:37;;;;;;;;;;;15.50;99.90;;;;;;5072173;28;19931;-67
2023/04/28 12:16:06;;;;;;;;;;;15.50;99.90;;;;;;5056498;28;19947;-68
2023/04/28 12:18:32;;;;;;;;;;;15.70;99.90;;;;;;5068730;28;20391;-68
2023/04/28 12:20:59;;;;;;;;;;;15.60;99.90;;;;;;5065469;28;19933;-64
2023/04/28 12:23:30;;;;;;;;;;;15.50;99.90;;;;;;5060066;28;19932;-65
2023/04/28 12:25:57;;;;;;;;;;;15.50;99.90;;;;;;5068652;28;20019;-63
2023/04/28 12:28:24;;;;;;;;;;;15.30;99.90;;;;;;5067892;28;20277;-64
2023/04/28 12:31:03;;;;;;;;;;;15.30;99.90;;;;;;5057952;28;20043;-64
2023/04/28 12:33:32;;;;;;;;;;;15.40;99.90;;;;;;5064314;28;20380;-64
2023/04/28 12:36:00;;;;;;;;;;;15.40;99.90;;;;;;5071050;28;20322;-63
2023/04/28 12:38:27;;;;;;;;;;;15.50;99.90;;;;;;5057172;28;20100;-68
2023/04/28 12:40:54;;;;;;;;;;;15.40;99.90;;;;;;5069899;28;19924;-68
2023/04/28 12:43:22;;;;;;;;;;;15.40;99.90;;;;;;5070325;28;19978;-68
2023/04/28 12:45:48;;;;;;;;;;;15.40;99.90;;;;;;5065513;28;20491;-68
2023/04/28 12:48:15;;;;;;;;;;;15.30;99.90;;;;;;5063900;28;19998;-68
2023/04/28 12:50:43;;;;;;;;;;;15.20;99.90;;;;;;5069156;28;19998;-68
2023/04/28 12:53:10;;;;;;;;;;;15.20;99.90;;;;;;5062774;28;19925;-68
2023/04/28 12:55:39;;;;;;;;;;;15.20;99.90;;;;;;5057760;28;19944;-68
2023/04/28 12:58:06;;;;;;;;;;;15.20;99.90;;;;;;5060435;28;19932;-69
2023/04/28 13:00:33;;;;;;;;;;;15.20;99.90;;;;;;5069188;28;19924;-69
2023/04/28 13:02:59;;;;;;;;;;;15.20;99.90;;;;;;5056536;28;20381;-68
2023/04/28 13:05:26;;;;;;;;;;;15.30;99.90;;;;;;5063858;28;19947;-69
2023/04/28 13:07:55;;;;;;;;;;;15.10;99.90;;;;;;5064486;28;20381;-69
2023/04/28 13:10:22;;;;;;;;;;;15.20;99.90;;;;;;5069997;28;20349;-67
2023/04/28 13:12:48;;;;;;;;;;;15.10;99.90;;;;;;5061129;28;19932;-66
2023/04/28 13:15:15;;;;;;;;;;;15.10;99.90;;;;;;5068430;28;19925;-64
2023/04/28 13:17:43;;;;;;;;;;;15.10;99.90;;;;;;5058489;28;20258;-64
2023/04/28 13:20:10;;;;;;;;;;;14.90;99.90;;;;;;5059964;28;20379;-65
2023/04/28 13:22:37;;;;;;;;;;;14.90;99.90;;;;;;5069560;28;19925;-66
2023/04/28 13:25:06;;;;;;;;;;;15.00;99.90;;;;;;5067903;28;20006;-66
2023/04/28 13:27:33;;;;;;;;;;;15.10;99.90;;;;;;5065637;28;19924;-64
2023/04/28 13:30:00;;;;;;;;;;;15.10;99.90;;;;;;5067041;28;19924;-64
2023/04/28 13:32:26;;;;;;;;;;;15.10;99.90;;;;;;5058206;28;20354;-67
2023/04/28 13:34:53;;;;;;;;;;;15.00;99.90;;;;;;5062068;28;19924;-67
2023/04/28 13:37:20;;;;;;;;;;;14.90;99.90;;;;;;5064463;28;20243;-68
2023/04/28 13:39:47;;;;;;;;;;;14.90;99.90;;;;;;5068147;28;19924;-69
2023/04/28 13:42:15;;;;;;;;;;;14.90;99.90;;;;;;5068936;28;19932;-67
2023/04/28 13:44:41;;;;;;;;;;;14.90;99.90;;;;;;5069990;28;19935;-67
2023/04/28 13:47:09;;;;;;;;;;;14.90;99.90;;;;;;5064539;28;20334;-67
2023/04/28 13:49:38;;;;;;;;;;;15.00;99.90;;;;;;5067128;28;20404;-66
2023/04/28 13:52:05;;;;;;;;;;;15.00;99.90;;;;;;5063177;28;20369;-67
2023/04/28 13:54:32;;;;;;;;;;;15.00;99.90;;;;;;5054793;28;20623;-68
2023/04/28 13:56:59;;;;;;;;;;;15.00;99.90;;;;;;5069413;28;19995;-67
2023/04/28 13:59:27;;;;;;;;;;;15.00;99.90;;;;;;5071488;28;19929;-67
2023/04/28 14:01:53;;;;;;;;;;;15.00;99.90;;;;;;5072231;28;20408;-67
2023/04/28 14:04:21;;;;;;;;;;;15.20;99.90;;;;;;5064521;28;19971;-67
2023/04/28 14:06:49;;;;;;;;;;;15.30;99.90;;;;;;5069967;28;20300;-67
2023/04/28 14:09:16;;;;;;;;;;;15.30;99.90;;;;;;5072760;28;19994;-68
2023/04/28 14:11:43;;;;;;;;;;;15.40;99.90;;;;;;5073276;28;20019;-68
2023/04/28 14:14:10;;;;;;;;;;;15.60;99.90;;;;;;5067582;28;19931;-67
2023/04/28 14:16:38;;;;;;;;;;;15.80;99.90;;;;;;5070673;28;20296;-68
2023/04/28 14:19:06;;;;;;;;;;;16.00;99.90;;;;;;5065453;28;20385;-65
2023/04/28 14:21:33;;;;;;;;;;;16.30;99.90;;;;;;5069609;28;20023;-69
2023/04/28 14:24:00;;;;;;;;;;;16.30;99.90;;;;;;5072978;28;19978;-68